createdAt,value
2018-07-27T00:00:54.339Z,27.12
2018-07-27T00:01:54.369Z,27.05
2018-07-27T00:02:54.396Z,26.99
2018-07-27T00:03:54.425Z,26.99
2018-07-27T00:04:54.449Z,26.93
2018-07-27T00:05:54.478Z,26.96
2018-07-27T00:06:54.505Z,26.99
2018-07-27T00:07:54.535Z,26.93
2018-07-27T00:08:54.563Z,26.93
2018-07-27T00:09:54.591Z,26.85
2018-07-27T00:10:54.617Z,26.88
2018-07-27T00:11:54.641Z,26.84
2018-07-27T00:12:54.673Z,26.83
2018-07-27T00:13:54.701Z,26.88
2018-07-27T00:14:54.727Z,26.78
2018-07-27T00:15:54.762Z,26.80
2018-07-27T00:16:54.784Z,26.71
2018-07-27T00:17:54.811Z,26.75
2018-07-27T00:18:54.838Z,26.78
2018-07-27T00:19:54.866Z,26.78
2018-07-27T00:20:54.894Z,26.74
2018-07-27T00:21:54.922Z,26.73
2018-07-27T00:22:54.948Z,26.65
2018-07-27T00:23:54.977Z,26.73
2018-07-27T00:24:55.008Z,26.66
2018-07-27T00:25:55.029Z,26.70
2018-07-27T00:26:55.060Z,26.63
2018-07-27T00:27:55.086Z,26.68
2018-07-27T00:28:55.114Z,26.70
2018-07-27T00:29:55.491Z,26.62
2018-07-27T00:30:55.172Z,26.65
2018-07-27T00:31:55.193Z,26.70
2018-07-27T00:32:55.224Z,26.58
2018-07-27T00:33:55.249Z,26.56
2018-07-27T00:34:55.277Z,26.52
2018-07-27T00:35:55.303Z,26.59
2018-07-27T00:36:55.331Z,26.58
2018-07-27T00:37:55.359Z,26.45
2018-07-27T00:38:55.387Z,26.52
2018-07-27T00:39:55.417Z,26.56
2018-07-27T00:40:55.441Z,26.43
2018-07-27T00:41:55.479Z,26.43
2018-07-27T00:42:55.496Z,26.47
2018-07-27T00:43:55.526Z,26.47
2018-07-27T00:44:55.550Z,26.47
2018-07-27T00:45:55.578Z,26.44
2018-07-27T00:46:55.606Z,26.41
2018-07-27T00:47:55.640Z,26.43
2018-07-27T00:48:55.661Z,26.38
2018-07-27T00:49:55.690Z,26.36
2018-07-27T00:50:55.716Z,26.31
2018-07-27T00:51:55.745Z,26.36
2018-07-27T00:52:55.771Z,26.29
2018-07-27T00:53:55.799Z,26.25
2018-07-27T00:54:55.825Z,26.15
2018-07-27T00:55:55.852Z,26.26
2018-07-27T00:56:55.883Z,26.25
2018-07-27T00:57:55.910Z,26.26
2018-07-27T00:58:55.936Z,26.19
2018-07-27T00:59:55.963Z,26.16
2018-07-27T01:00:55.988Z,26.15
2018-07-27T01:01:56.017Z,26.19
2018-07-27T01:02:56.048Z,26.18
2018-07-27T01:03:56.073Z,26.06
2018-07-27T01:04:56.098Z,26.15
2018-07-27T01:05:56.129Z,26.18
2018-07-27T01:06:56.153Z,26.16
2018-07-27T01:07:56.182Z,26.16
2018-07-27T01:08:56.209Z,26.18
2018-07-27T01:09:56.239Z,26.06
2018-07-27T01:10:56.265Z,26.06
2018-07-27T01:11:56.290Z,26.05
2018-07-27T01:12:56.319Z,26.09
2018-07-27T01:13:56.346Z,26.19
2018-07-27T01:14:56.370Z,26.07
2018-07-27T01:15:56.400Z,26.09
2018-07-27T01:16:56.428Z,26.05
2018-07-27T01:17:56.462Z,26.03
2018-07-27T01:18:56.481Z,26.02
2018-07-27T01:19:56.506Z,25.96
2018-07-27T01:20:56.535Z,26.00
2018-07-27T01:21:56.564Z,25.93
2018-07-27T01:22:56.591Z,26.03
2018-07-27T01:23:56.615Z,26.00
2018-07-27T01:24:56.642Z,25.93
2018-07-27T01:25:56.674Z,25.87
2018-07-27T01:26:56.698Z,25.85
2018-07-27T01:27:56.727Z,25.84
2018-07-27T01:28:56.751Z,25.87
2018-07-27T01:29:57.283Z,25.84
2018-07-27T01:30:56.807Z,25.81
2018-07-27T01:31:56.839Z,25.80
2018-07-27T01:32:56.863Z,25.70
2018-07-27T01:33:56.888Z,25.73
2018-07-27T01:34:56.915Z,25.70
2018-07-27T01:35:56.944Z,25.70
2018-07-27T01:36:56.971Z,25.70
2018-07-27T01:37:56.999Z,25.65
2018-07-27T01:38:57.024Z,25.72
2018-07-27T01:39:57.050Z,25.70
2018-07-27T01:40:57.079Z,25.73
2018-07-27T01:41:57.108Z,25.68
2018-07-27T01:42:57.134Z,25.58
2018-07-27T01:43:57.158Z,25.65
2018-07-27T01:44:57.186Z,25.55
2018-07-27T01:45:57.214Z,25.55
2018-07-27T01:46:57.247Z,25.50
2018-07-27T01:47:57.268Z,25.46
2018-07-27T01:48:57.295Z,25.55
2018-07-27T01:49:57.323Z,25.51
2018-07-27T01:50:57.411Z,25.40
2018-07-27T01:51:57.375Z,25.51
2018-07-27T01:52:57.405Z,25.47
2018-07-27T01:53:57.430Z,25.44
2018-07-27T01:54:57.466Z,25.50
2018-07-27T01:55:57.486Z,25.36
2018-07-27T01:56:57.510Z,25.28
2018-07-27T01:57:57.540Z,25.32
2018-07-27T01:58:57.567Z,25.23
2018-07-27T01:59:57.591Z,25.23
2018-07-27T02:00:57.624Z,25.17
2018-07-27T02:01:57.646Z,25.17
2018-07-27T02:02:57.673Z,25.25
2018-07-27T02:03:57.702Z,25.25
2018-07-27T02:04:57.726Z,25.29
2018-07-27T02:05:57.793Z,25.29
2018-07-27T02:06:57.783Z,25.23
2018-07-27T02:07:57.807Z,25.33
2018-07-27T02:08:57.834Z,25.25
2018-07-27T02:09:57.861Z,25.21
2018-07-27T02:10:57.890Z,25.21
2018-07-27T02:11:57.917Z,25.17
2018-07-27T02:12:58.004Z,25.16
2018-07-27T02:13:57.969Z,25.18
2018-07-27T02:14:57.996Z,25.17
2018-07-27T02:15:58.023Z,25.23
2018-07-27T02:16:58.052Z,25.29
2018-07-27T02:17:58.076Z,25.31
2018-07-27T02:18:58.103Z,25.28
2018-07-27T02:19:58.135Z,25.26
2018-07-27T02:20:58.157Z,25.21
2018-07-27T02:21:58.188Z,25.18
2018-07-27T02:22:58.211Z,25.14
2018-07-27T02:23:58.240Z,25.08
2018-07-27T02:24:58.268Z,25.07
2018-07-27T02:25:58.293Z,25.14
2018-07-27T02:26:58.319Z,25.21
2018-07-27T02:27:58.345Z,25.06
2018-07-27T02:28:58.375Z,25.17
2018-07-27T02:29:59.303Z,25.07
2018-07-27T02:30:58.428Z,25.13
2018-07-27T02:31:58.455Z,25.01
2018-07-27T02:32:58.480Z,25.10
2018-07-27T02:33:58.507Z,25.14
2018-07-27T02:34:58.545Z,25.07
2018-07-27T02:35:58.560Z,25.03
2018-07-27T02:36:58.588Z,24.99
2018-07-27T02:37:58.616Z,25.03
2018-07-27T02:38:58.644Z,25.07
2018-07-27T02:39:58.700Z,24.98
2018-07-27T02:40:58.698Z,25.07
2018-07-27T02:41:58.723Z,24.95
2018-07-27T02:42:58.748Z,24.89
2018-07-27T02:43:58.777Z,24.86
2018-07-27T02:44:58.801Z,24.84
2018-07-27T02:45:58.832Z,24.88
2018-07-27T02:46:58.854Z,24.85
2018-07-27T02:47:58.883Z,24.85
2018-07-27T02:48:58.912Z,24.73
2018-07-27T02:49:58.936Z,24.80
2018-07-27T02:50:58.963Z,24.77
2018-07-27T02:51:58.989Z,24.80
2018-07-27T02:52:59.041Z,24.76
2018-07-27T02:53:59.044Z,24.69
2018-07-27T02:54:59.072Z,24.76
2018-07-27T02:55:59.096Z,24.76
2018-07-27T02:56:59.123Z,24.78
2018-07-27T02:57:59.153Z,24.74
2018-07-27T02:58:59.179Z,24.76
2018-07-27T02:59:59.202Z,24.73
2018-07-27T03:00:59.229Z,24.78
2018-07-27T03:01:59.259Z,24.70
2018-07-27T03:02:59.285Z,24.74
2018-07-27T03:03:59.313Z,24.68
2018-07-27T03:04:59.338Z,24.70
2018-07-27T03:05:59.366Z,24.68
2018-07-27T03:06:59.390Z,24.65
2018-07-27T03:07:59.416Z,24.63
2018-07-27T03:08:59.445Z,24.61
2018-07-27T03:09:59.482Z,24.55
2018-07-27T03:10:59.498Z,24.55
2018-07-27T03:11:59.522Z,24.58
2018-07-27T03:12:59.550Z,24.58
2018-07-27T03:13:59.576Z,24.60
2018-07-27T03:14:59.607Z,24.60
2018-07-27T03:15:59.644Z,24.57
2018-07-27T03:16:59.657Z,24.57
2018-07-27T03:17:59.685Z,24.55
2018-07-27T03:18:59.711Z,24.53
2018-07-27T03:19:59.742Z,24.48
2018-07-27T03:20:59.762Z,24.54
2018-07-27T03:21:59.788Z,24.53
2018-07-27T03:22:59.818Z,24.48
2018-07-27T03:23:59.841Z,24.51
2018-07-27T03:24:59.868Z,24.57
2018-07-27T03:25:59.896Z,24.48
2018-07-27T03:26:59.923Z,24.43
2018-07-27T03:27:59.946Z,24.42
2018-07-27T03:28:59.975Z,24.47
2018-07-27T03:30:00.001Z,24.40
2018-07-27T03:31:00.027Z,24.45
2018-07-27T03:32:00.055Z,24.35
2018-07-27T03:33:00.080Z,24.30
2018-07-27T03:34:00.108Z,24.35
2018-07-27T03:35:00.233Z,24.40
2018-07-27T03:36:00.161Z,24.29
2018-07-27T03:37:00.186Z,24.38
2018-07-27T03:38:00.314Z,24.30
2018-07-27T03:39:00.246Z,24.32
2018-07-27T03:40:00.266Z,24.32
2018-07-27T03:41:00.290Z,24.24
2018-07-27T03:42:00.363Z,24.29
2018-07-27T03:43:00.344Z,24.28
2018-07-27T03:44:00.372Z,24.18
2018-07-27T03:45:00.395Z,24.28
2018-07-27T03:46:00.421Z,24.24
2018-07-27T03:47:00.451Z,24.17
2018-07-27T03:48:00.474Z,24.28
2018-07-27T03:49:00.504Z,24.30
2018-07-27T03:50:00.530Z,24.33
2018-07-27T03:51:00.555Z,24.23
2018-07-27T03:52:00.579Z,24.29
2018-07-27T03:53:00.611Z,24.28
2018-07-27T03:54:00.631Z,24.32
2018-07-27T03:55:00.658Z,24.33
2018-07-27T03:56:00.687Z,24.39
2018-07-27T03:57:00.714Z,24.32
2018-07-27T03:58:00.742Z,24.30
2018-07-27T03:59:00.764Z,24.33
2018-07-27T04:00:00.792Z,24.40
2018-07-27T04:01:00.818Z,24.32
2018-07-27T04:02:00.847Z,24.38
2018-07-27T04:03:00.872Z,24.35
2018-07-27T04:04:00.894Z,24.42
2018-07-27T04:05:00.924Z,24.43
2018-07-27T04:06:00.947Z,24.43
2018-07-27T04:07:00.976Z,24.39
2018-07-27T04:08:01.004Z,24.43
2018-07-27T04:09:01.026Z,24.40
2018-07-27T04:10:01.056Z,24.32
2018-07-27T04:11:01.082Z,24.39
2018-07-27T04:12:01.105Z,24.33
2018-07-27T04:13:01.132Z,24.32
2018-07-27T04:14:01.160Z,24.39
2018-07-27T04:15:01.214Z,24.33
2018-07-27T04:16:01.213Z,24.35
2018-07-27T04:17:01.237Z,24.35
2018-07-27T04:18:01.267Z,24.38
2018-07-27T04:19:01.293Z,24.33
2018-07-27T04:20:01.315Z,24.29
2018-07-27T04:21:01.341Z,24.36
2018-07-27T04:22:01.368Z,24.35
2018-07-27T04:23:01.396Z,24.43
2018-07-27T04:24:01.419Z,24.45
2018-07-27T04:25:01.449Z,24.45
2018-07-27T04:26:01.474Z,24.40
2018-07-27T04:27:01.500Z,24.45
2018-07-27T04:28:01.527Z,24.42
2018-07-27T04:29:01.556Z,24.45
2018-07-27T04:30:01.578Z,24.48
2018-07-27T04:31:01.604Z,24.45
2018-07-27T04:32:01.630Z,24.39
2018-07-27T04:33:01.659Z,24.43
2018-07-27T04:34:01.681Z,24.47
2018-07-27T04:35:01.710Z,24.42
2018-07-27T04:36:01.734Z,24.43
2018-07-27T04:37:01.760Z,24.50
2018-07-27T04:38:01.786Z,24.54
2018-07-27T04:39:01.813Z,24.53
2018-07-27T04:40:01.841Z,24.57
2018-07-27T04:41:01.867Z,24.58
2018-07-27T04:42:01.893Z,24.55
2018-07-27T04:43:01.959Z,24.57
2018-07-27T04:44:01.946Z,24.58
2018-07-27T04:45:01.973Z,24.61
2018-07-27T04:46:01.996Z,24.55
2018-07-27T04:47:02.023Z,24.58
2018-07-27T04:48:02.048Z,24.65
2018-07-27T04:49:02.075Z,24.69
2018-07-27T04:50:02.101Z,24.65
2018-07-27T04:51:02.133Z,24.68
2018-07-27T04:52:02.156Z,24.74
2018-07-27T04:53:02.179Z,24.70
2018-07-27T04:54:02.206Z,24.78
2018-07-27T04:55:02.237Z,24.85
2018-07-27T04:56:02.258Z,24.89
2018-07-27T04:57:02.288Z,24.98
2018-07-27T04:58:02.314Z,24.92
2018-07-27T04:59:02.338Z,24.95
2018-07-27T05:00:02.364Z,24.96
2018-07-27T05:01:02.391Z,24.95
2018-07-27T05:02:02.422Z,25.03
2018-07-27T05:03:02.446Z,25.10
2018-07-27T05:04:02.474Z,25.07
2018-07-27T05:05:02.498Z,25.11
2018-07-27T05:06:02.527Z,25.10
2018-07-27T05:07:02.553Z,25.16
2018-07-27T05:08:02.578Z,25.18
2018-07-27T05:09:02.609Z,25.22
2018-07-27T05:10:02.632Z,25.26
2018-07-27T05:11:02.659Z,25.28
2018-07-27T05:12:02.686Z,25.40
2018-07-27T05:13:02.712Z,25.43
2018-07-27T05:14:02.740Z,25.48
2018-07-27T05:15:02.764Z,25.51
2018-07-27T05:16:02.789Z,25.54
2018-07-27T05:17:02.819Z,25.66
2018-07-27T05:18:02.846Z,25.70
2018-07-27T05:19:02.874Z,25.70
2018-07-27T05:20:02.896Z,25.77
2018-07-27T05:21:02.926Z,25.83
2018-07-27T05:22:02.951Z,25.85
2018-07-27T05:23:02.981Z,25.83
2018-07-27T05:24:03.007Z,25.84
2018-07-27T05:25:03.034Z,25.87
2018-07-27T05:26:03.062Z,25.88
2018-07-27T05:27:03.088Z,25.90
2018-07-27T05:28:03.111Z,25.93
2018-07-27T05:29:03.138Z,25.93
2018-07-27T05:30:03.168Z,26.07
2018-07-27T05:31:03.196Z,26.06
2018-07-27T05:32:03.219Z,26.09
2018-07-27T05:33:03.250Z,26.06
2018-07-27T05:34:03.276Z,26.07
2018-07-27T05:35:03.303Z,26.02
2018-07-27T05:36:03.328Z,26.06
2018-07-27T05:37:03.355Z,26.16
2018-07-27T05:38:03.384Z,26.19
2018-07-27T05:39:03.411Z,26.21
2018-07-27T05:40:03.438Z,26.23
2018-07-27T05:41:03.464Z,26.34
2018-07-27T05:42:03.493Z,26.36
2018-07-27T05:43:03.522Z,26.34
2018-07-27T05:44:03.545Z,26.37
2018-07-27T05:45:03.575Z,26.43
2018-07-27T05:46:03.600Z,26.45
2018-07-27T05:47:03.690Z,26.45
2018-07-27T05:48:03.655Z,26.45
2018-07-27T05:49:03.682Z,26.47
2018-07-27T05:50:03.710Z,26.56
2018-07-27T05:51:03.740Z,26.55
2018-07-27T05:52:03.765Z,26.62
2018-07-27T05:53:03.791Z,26.71
2018-07-27T05:54:03.818Z,26.71
2018-07-27T05:55:03.850Z,26.97
2018-07-27T05:56:03.877Z,27.11
2018-07-27T05:57:03.907Z,27.14
2018-07-27T05:58:03.932Z,27.22
2018-07-27T05:59:03.960Z,27.36
2018-07-27T06:00:03.985Z,27.44
2018-07-27T06:01:04.035Z,27.59
2018-07-27T06:02:04.048Z,27.60
2018-07-27T06:03:04.213Z,27.70
2018-07-27T06:04:04.100Z,27.73
2018-07-27T06:05:04.276Z,27.71
2018-07-27T06:06:04.156Z,27.67
2018-07-27T06:07:04.181Z,27.71
2018-07-27T06:08:04.559Z,27.73
2018-07-27T06:09:04.587Z,27.70
2018-07-27T06:10:04.267Z,27.65
2018-07-27T06:11:04.296Z,27.71
2018-07-27T06:12:04.321Z,27.64
2018-07-27T06:13:04.352Z,27.63
2018-07-27T06:14:04.381Z,27.55
2018-07-27T06:15:04.407Z,27.48
2018-07-27T06:16:04.435Z,27.47
2018-07-27T06:17:04.464Z,27.52
2018-07-27T06:18:04.511Z,27.54
2018-07-27T06:19:04.527Z,27.52
2018-07-27T06:20:04.555Z,27.58
2018-07-27T06:21:04.595Z,27.64
2018-07-27T06:22:04.607Z,27.67
2018-07-27T06:23:04.638Z,27.77
2018-07-27T06:24:04.753Z,27.80
2018-07-27T06:25:04.695Z,27.82
2018-07-27T06:26:04.724Z,27.98
2018-07-27T06:27:04.750Z,28.05
2018-07-27T06:28:04.785Z,28.10
2018-07-27T06:29:04.807Z,28.12
2018-07-27T06:30:04.960Z,28.11
2018-07-27T06:31:04.868Z,28.11
2018-07-27T06:32:04.893Z,28.12
2018-07-27T06:33:04.921Z,27.93
2018-07-27T06:34:04.954Z,28.01
2018-07-27T06:35:04.982Z,28.01
2018-07-27T06:36:05.011Z,27.93
2018-07-27T06:37:05.040Z,27.83
2018-07-27T06:38:05.069Z,27.83
2018-07-27T06:39:05.142Z,27.95
2018-07-27T06:40:05.124Z,27.90
2018-07-27T06:41:05.155Z,27.87
2018-07-27T06:42:05.189Z,28.00
2018-07-27T06:43:05.211Z,28.01
2018-07-27T06:44:05.238Z,27.98
2018-07-27T06:45:05.286Z,27.98
2018-07-27T06:46:05.297Z,28.08
2018-07-27T06:47:05.325Z,28.00
2018-07-27T06:48:05.353Z,28.11
2018-07-27T06:49:05.382Z,28.04
2018-07-27T06:50:05.411Z,28.05
2018-07-27T06:51:05.443Z,28.12
2018-07-27T06:52:05.468Z,28.10
2018-07-27T06:53:05.496Z,28.22
2018-07-27T06:54:05.527Z,28.22
2018-07-27T06:55:05.557Z,28.27
2018-07-27T06:56:05.583Z,28.30
2018-07-27T06:57:05.613Z,28.29
2018-07-27T06:58:05.643Z,28.27
2018-07-27T06:59:05.671Z,28.23
2018-07-27T07:00:05.700Z,28.25
2018-07-27T07:01:05.729Z,28.25
2018-07-27T07:02:05.754Z,28.33
2018-07-27T07:03:05.783Z,28.37
2018-07-27T07:04:05.811Z,28.49
2018-07-27T07:05:05.843Z,28.49
2018-07-27T07:06:05.872Z,28.49
2018-07-27T07:07:05.906Z,28.38
2018-07-27T07:08:05.928Z,28.41
2018-07-27T07:09:06.012Z,28.37
2018-07-27T07:10:06.236Z,28.47
2018-07-27T07:11:06.012Z,28.54
2018-07-27T07:12:06.040Z,28.59
2018-07-27T07:13:06.070Z,28.75
2018-07-27T07:14:06.099Z,28.91
2018-07-27T07:15:06.130Z,28.97
2018-07-27T07:16:06.154Z,29.10
2018-07-27T07:17:06.184Z,29.24
2018-07-27T07:18:06.212Z,29.32
2018-07-27T07:19:06.242Z,29.42
2018-07-27T07:20:06.273Z,29.41
2018-07-27T07:21:06.303Z,29.44
2018-07-27T07:22:06.360Z,29.60
2018-07-27T07:23:06.358Z,29.65
2018-07-27T07:24:06.689Z,29.68
2018-07-27T07:25:06.502Z,29.79
2018-07-27T07:26:06.736Z,29.87
2018-07-27T07:27:06.480Z,30.02
2018-07-27T07:28:06.504Z,30.23
2018-07-27T07:29:06.532Z,30.28
2018-07-27T07:30:06.561Z,30.46
2018-07-27T07:31:06.593Z,30.30
2018-07-27T07:32:06.623Z,30.35
2018-07-27T07:33:06.655Z,30.32
2018-07-27T07:34:06.680Z,30.51
2018-07-27T07:35:06.713Z,30.61
2018-07-27T07:36:06.740Z,30.69
2018-07-27T07:37:06.771Z,30.69
2018-07-27T07:38:07.353Z,30.70
2018-07-27T07:39:06.838Z,30.61
2018-07-27T07:40:06.862Z,30.62
2018-07-27T07:41:06.895Z,30.51
2018-07-27T07:42:06.926Z,30.63
2018-07-27T07:43:06.957Z,30.62
2018-07-27T07:44:06.987Z,30.69
2018-07-27T07:45:07.054Z,30.68
2018-07-27T07:46:07.048Z,30.69
2018-07-27T07:47:07.080Z,30.59
2018-07-27T07:48:07.111Z,30.54
2018-07-27T07:49:07.139Z,30.62
2018-07-27T07:50:07.169Z,30.68
2018-07-27T07:51:07.203Z,30.80
2018-07-27T07:52:07.230Z,30.61
2018-07-27T07:53:07.261Z,30.80
2018-07-27T07:54:07.295Z,30.84
2018-07-27T07:55:07.326Z,30.84
2018-07-27T07:56:07.362Z,30.97
2018-07-27T07:57:07.384Z,31.05
2018-07-27T07:58:07.418Z,31.24
2018-07-27T07:59:07.447Z,31.07
2018-07-27T08:00:07.479Z,31.17
2018-07-27T08:01:07.507Z,31.10
2018-07-27T08:02:07.542Z,31.25
2018-07-27T08:03:07.571Z,31.25
2018-07-27T08:04:07.598Z,31.28
2018-07-27T08:05:07.631Z,31.27
2018-07-27T08:06:07.660Z,31.22
2018-07-27T08:07:07.692Z,31.27
2018-07-27T08:08:07.721Z,31.21
2018-07-27T08:09:07.752Z,31.33
2018-07-27T08:10:07.789Z,31.36
2018-07-27T08:11:07.827Z,31.39
2018-07-27T08:12:07.843Z,31.59
2018-07-27T08:13:07.878Z,31.64
2018-07-27T08:14:07.906Z,31.61
2018-07-27T08:15:07.937Z,31.62
2018-07-27T08:16:07.965Z,31.69
2018-07-27T08:17:07.998Z,31.85
2018-07-27T08:18:08.029Z,31.80
2018-07-27T08:19:08.056Z,31.77
2018-07-27T08:20:08.090Z,31.87
2018-07-27T08:21:08.122Z,31.90
2018-07-27T08:22:08.151Z,31.89
2018-07-27T08:23:08.183Z,31.96
2018-07-27T08:24:08.214Z,32.07
2018-07-27T08:25:08.244Z,31.92
2018-07-27T08:26:08.276Z,31.77
2018-07-27T08:27:08.306Z,31.81
2018-07-27T08:28:08.332Z,31.71
2018-07-27T08:29:08.365Z,31.59
2018-07-27T08:30:08.393Z,31.58
2018-07-27T08:31:08.878Z,31.59
2018-07-27T08:32:08.457Z,31.71
2018-07-27T08:33:08.484Z,31.81
2018-07-27T08:34:08.515Z,31.85
2018-07-27T08:35:08.546Z,32.00
2018-07-27T08:36:08.576Z,31.96
2018-07-27T08:37:08.606Z,32.09
2018-07-27T08:38:08.637Z,32.19
2018-07-27T08:39:08.669Z,32.12
2018-07-27T08:40:08.700Z,32.07
2018-07-27T08:41:08.732Z,32.08
2018-07-27T08:42:09.111Z,32.19
2018-07-27T08:43:08.793Z,32.18
2018-07-27T08:44:08.823Z,32.11
2018-07-27T08:45:08.854Z,32.04
2018-07-27T08:46:08.882Z,31.99
2018-07-27T08:47:08.917Z,31.84
2018-07-27T08:48:08.945Z,31.76
2018-07-27T08:49:08.976Z,32.14
2018-07-27T08:50:09.007Z,32.29
2018-07-27T08:51:09.037Z,32.58
2018-07-27T08:52:09.067Z,32.59
2018-07-27T08:53:09.098Z,32.80
2018-07-27T08:54:09.126Z,32.75
2018-07-27T08:55:09.157Z,32.75
2018-07-27T08:56:09.188Z,32.73
2018-07-27T08:57:09.219Z,32.74
2018-07-27T08:58:09.249Z,32.64
2018-07-27T08:59:09.279Z,32.64
2018-07-27T09:00:09.309Z,32.73
2018-07-27T09:01:09.343Z,32.90
2018-07-27T09:02:09.373Z,33.09
2018-07-27T09:03:09.401Z,33.17
2018-07-27T09:04:09.436Z,33.14
2018-07-27T09:05:09.470Z,33.17
2018-07-27T09:06:09.493Z,33.02
2018-07-27T09:07:09.524Z,32.97
2018-07-27T09:08:09.557Z,33.09
2018-07-27T09:09:09.588Z,33.04
2018-07-27T09:10:09.629Z,33.05
2018-07-27T09:11:09.900Z,33.02
2018-07-27T09:12:09.680Z,32.95
2018-07-27T09:13:09.708Z,32.74
2018-07-27T09:14:09.742Z,32.74
2018-07-27T09:15:09.772Z,32.78
2018-07-27T09:16:09.803Z,32.93
2018-07-27T09:17:09.835Z,32.67
2018-07-27T09:18:09.862Z,32.71
2018-07-27T09:19:10.146Z,32.74
2018-07-27T09:20:09.927Z,32.60
2018-07-27T09:21:10.041Z,32.64
2018-07-27T09:22:10.038Z,32.55
2018-07-27T09:23:10.020Z,32.49
2018-07-27T09:24:10.207Z,32.60
2018-07-27T09:25:10.541Z,32.53
2018-07-27T09:26:10.110Z,32.73
2018-07-27T09:27:10.143Z,32.73
2018-07-27T09:28:10.170Z,32.77
2018-07-27T09:29:10.201Z,32.92
2018-07-27T09:30:10.236Z,33.04
2018-07-27T09:31:10.267Z,32.96
2018-07-27T09:32:10.297Z,32.78
2018-07-27T09:33:10.329Z,32.67
2018-07-27T09:34:10.363Z,32.70
2018-07-27T09:35:10.401Z,32.74
2018-07-27T09:36:10.417Z,32.92
2018-07-27T09:37:10.448Z,32.71
2018-07-27T09:38:10.489Z,32.53
2018-07-27T09:39:10.513Z,32.67
2018-07-27T09:40:10.544Z,32.56
2018-07-27T09:41:10.571Z,32.59
2018-07-27T09:42:10.602Z,32.59
2018-07-27T09:43:10.635Z,32.70
2018-07-27T09:44:10.667Z,32.74
2018-07-27T09:45:10.696Z,33.00
2018-07-27T09:46:10.729Z,33.04
2018-07-27T09:47:10.756Z,33.14
2018-07-27T09:48:10.786Z,33.09
2018-07-27T09:49:10.820Z,33.07
2018-07-27T09:50:10.852Z,33.20
2018-07-27T09:51:10.881Z,33.22
2018-07-27T09:52:10.910Z,33.23
2018-07-27T09:53:10.944Z,33.37
2018-07-27T09:54:10.975Z,33.32
2018-07-27T09:55:11.004Z,33.50
2018-07-27T09:56:11.032Z,33.47
2018-07-27T09:57:11.067Z,33.55
2018-07-27T09:58:11.099Z,33.55
2018-07-27T09:59:11.130Z,33.53
2018-07-27T10:00:11.156Z,33.61
2018-07-27T10:01:11.188Z,33.67
2018-07-27T10:02:11.223Z,33.68
2018-07-27T10:03:11.250Z,33.65
2018-07-27T10:04:11.283Z,33.58
2018-07-27T10:05:11.312Z,33.46
2018-07-27T10:06:11.346Z,33.45
2018-07-27T10:07:11.375Z,33.58
2018-07-27T10:08:11.409Z,33.58
2018-07-27T10:09:11.439Z,33.65
2018-07-27T10:10:11.467Z,33.68
2018-07-27T10:11:11.499Z,33.71
2018-07-27T10:12:11.529Z,33.76
2018-07-27T10:13:11.561Z,33.62
2018-07-27T10:14:11.596Z,33.64
2018-07-27T10:15:11.626Z,33.65
2018-07-27T10:16:11.760Z,33.69
2018-07-27T10:17:11.686Z,33.42
2018-07-27T10:18:11.723Z,33.62
2018-07-27T10:19:11.751Z,33.64
2018-07-27T10:20:11.780Z,33.68
2018-07-27T10:21:11.813Z,33.67
2018-07-27T10:22:11.848Z,33.67
2018-07-27T10:23:11.873Z,33.83
2018-07-27T10:24:11.965Z,33.83
2018-07-27T10:25:11.938Z,33.76
2018-07-27T10:26:11.972Z,33.79
2018-07-27T10:27:11.998Z,33.81
2018-07-27T10:28:12.029Z,33.81
2018-07-27T10:29:12.060Z,33.71
2018-07-27T10:30:12.092Z,33.62
2018-07-27T10:31:12.151Z,33.53
2018-07-27T10:32:12.153Z,33.53
2018-07-27T10:33:12.539Z,33.52
2018-07-27T10:34:12.217Z,33.64
2018-07-27T10:35:12.249Z,33.46
2018-07-27T10:36:12.279Z,33.36
2018-07-27T10:37:12.313Z,33.45
2018-07-27T10:38:12.342Z,33.36
2018-07-27T10:39:12.378Z,33.57
2018-07-27T10:40:12.406Z,33.64
2018-07-27T10:41:12.490Z,33.81
2018-07-27T10:42:12.473Z,33.95
2018-07-27T10:43:12.501Z,33.87
2018-07-27T10:44:12.533Z,33.90
2018-07-27T10:45:12.561Z,33.99
2018-07-27T10:46:12.595Z,33.94
2018-07-27T10:47:12.624Z,33.89
2018-07-27T10:48:12.655Z,33.87
2018-07-27T10:49:12.687Z,33.69
2018-07-27T10:50:12.781Z,33.61
2018-07-27T10:51:12.749Z,33.65
2018-07-27T10:52:12.780Z,33.76
2018-07-27T10:53:12.815Z,33.89
2018-07-27T10:54:12.846Z,33.96
2018-07-27T10:55:12.881Z,33.98
2018-07-27T10:56:12.908Z,33.64
2018-07-27T10:57:12.939Z,33.64
2018-07-27T10:58:12.969Z,33.65
2018-07-27T10:59:13.000Z,33.45
2018-07-27T11:00:13.030Z,33.24
2018-07-27T11:01:13.065Z,33.24
2018-07-27T11:02:13.096Z,33.46
2018-07-27T11:03:13.129Z,33.57
2018-07-27T11:04:13.155Z,33.34
2018-07-27T11:05:13.195Z,33.46
2018-07-27T11:06:13.218Z,33.43
2018-07-27T11:07:13.249Z,33.43
2018-07-27T11:08:13.280Z,33.50
2018-07-27T11:09:13.314Z,33.49
2018-07-27T11:10:13.343Z,33.52
2018-07-27T11:11:13.377Z,33.53
2018-07-27T11:12:13.406Z,33.57
2018-07-27T11:13:13.436Z,33.68
2018-07-27T11:14:13.468Z,33.61
2018-07-27T11:15:13.543Z,33.79
2018-07-27T11:16:13.529Z,33.92
2018-07-27T11:17:13.620Z,33.99
2018-07-27T11:18:13.592Z,33.99
2018-07-27T11:19:13.622Z,33.99
2018-07-27T11:20:13.657Z,34.02
2018-07-27T11:21:13.685Z,34.21
2018-07-27T11:22:13.718Z,34.18
2018-07-27T11:23:13.750Z,34.23
2018-07-27T11:24:13.781Z,34.21
2018-07-27T11:25:13.812Z,34.01
2018-07-27T11:26:13.844Z,33.98
2018-07-27T11:27:13.873Z,33.87
2018-07-27T11:28:13.908Z,33.92
2018-07-27T11:29:13.934Z,33.96
2018-07-27T11:30:13.970Z,33.94
2018-07-27T11:31:14.001Z,34.08
2018-07-27T11:32:14.029Z,34.11
2018-07-27T11:33:14.060Z,33.99
2018-07-27T11:34:14.091Z,33.95
2018-07-27T11:35:14.123Z,34.33
2018-07-27T11:36:14.157Z,34.40
2018-07-27T11:37:14.227Z,34.55
2018-07-27T11:38:14.518Z,34.57
2018-07-27T11:39:14.248Z,34.55
2018-07-27T11:40:14.280Z,34.50
2018-07-27T11:41:14.310Z,34.33
2018-07-27T11:42:14.405Z,34.29
2018-07-27T11:43:14.377Z,34.23
2018-07-27T11:44:14.408Z,34.38
2018-07-27T11:45:14.438Z,34.47
2018-07-27T11:46:14.470Z,34.45
2018-07-27T11:47:14.499Z,34.48
2018-07-27T11:48:14.534Z,34.57
2018-07-27T11:49:14.567Z,34.54
2018-07-27T11:50:14.593Z,34.54
2018-07-27T11:51:14.625Z,34.55
2018-07-27T11:52:14.658Z,34.54
2018-07-27T11:53:14.691Z,34.54
2018-07-27T11:54:14.718Z,34.55
2018-07-27T11:55:14.753Z,34.67
2018-07-27T11:56:14.780Z,34.52
2018-07-27T11:57:14.813Z,34.52
2018-07-27T11:58:14.845Z,34.50
2018-07-27T11:59:14.884Z,34.30
2018-07-27T12:00:14.959Z,34.35
2018-07-27T12:01:14.938Z,34.55
2018-07-27T12:02:14.972Z,34.60
2018-07-27T12:03:15.006Z,34.51
2018-07-27T12:04:15.033Z,34.57
2018-07-27T12:05:15.069Z,34.58
2018-07-27T12:06:15.099Z,34.71
2018-07-27T12:07:15.130Z,34.81
2018-07-27T12:08:15.160Z,34.77
2018-07-27T12:09:15.191Z,34.60
2018-07-27T12:10:15.221Z,34.67
2018-07-27T12:11:15.253Z,34.54
2018-07-27T12:12:15.339Z,34.36
2018-07-27T12:13:15.316Z,34.35
2018-07-27T12:14:15.480Z,34.54
2018-07-27T12:15:15.588Z,34.62
2018-07-27T12:16:15.410Z,34.55
2018-07-27T12:17:15.442Z,34.58
2018-07-27T12:18:15.475Z,34.51
2018-07-27T12:19:15.508Z,34.45
2018-07-27T12:20:15.535Z,34.40
2018-07-27T12:21:15.705Z,34.40
2018-07-27T12:22:15.599Z,34.43
2018-07-27T12:23:15.632Z,34.45
2018-07-27T12:24:15.666Z,34.50
2018-07-27T12:25:15.694Z,34.51
2018-07-27T12:26:15.727Z,34.36
2018-07-27T12:27:15.760Z,34.33
2018-07-27T12:28:15.790Z,34.39
2018-07-27T12:29:15.822Z,34.40
2018-07-27T12:30:15.855Z,34.48
2018-07-27T12:31:15.885Z,34.61
2018-07-27T12:32:15.917Z,34.54
2018-07-27T12:33:15.948Z,34.71
2018-07-27T12:34:15.977Z,34.70
2018-07-27T12:35:16.010Z,34.62
2018-07-27T12:36:16.042Z,34.83
2018-07-27T12:37:16.072Z,34.67
2018-07-27T12:38:16.104Z,34.74
2018-07-27T12:39:16.136Z,34.75
2018-07-27T12:40:16.169Z,34.83
2018-07-27T12:41:16.199Z,34.88
2018-07-27T12:42:16.237Z,34.96
2018-07-27T12:43:16.262Z,34.71
2018-07-27T12:44:16.296Z,34.73
2018-07-27T12:45:16.325Z,34.42
2018-07-27T12:46:16.360Z,34.11
2018-07-27T12:47:16.388Z,34.06
2018-07-27T12:48:16.425Z,33.99
2018-07-27T12:49:16.451Z,33.99
2018-07-27T12:50:16.486Z,33.99
2018-07-27T12:51:16.557Z,34.02
2018-07-27T12:52:16.546Z,34.21
2018-07-27T12:53:16.582Z,34.47